Time,TemperatureF,DewpointF,PressureIn,WindDirection,WindDirectionDegrees,WindSpeedMPH,WindSpeedGustMPH,Humidity,HourlyPrecipIn,Conditions,Clouds,dailyrainin,SoftwareType,DateUTC
2014-08-22 00:00:00,71.7,70.8,29.89,South,183,2.0,4.0,97,0.00,,,0.30,VWS V14.01,2014-08-22 05:00:00,
2014-08-22 00:02:00,71.7,70.8,29.89,South,183,3.0,3.0,97,0.00,,BKN100,0.00,VWS V14.01,2014-08-22 05:02:00,
2014-08-22 00:07:00,71.6,70.7,29.89,South,186,2.0,4.0,97,0.00,,BKN100,0.00,VWS V14.01,2014-08-22 05:07:00,
2014-08-22 00:10:00,71.6,70.7,29.89,South,186,1.0,4.0,97,0.00,,,0.00,VWS V14.01,2014-08-22 05:10:00,
2014-08-22 00:12:00,71.6,70.7,29.89,South,186,2.0,2.0,97,0.00,,BKN100,0.00,VWS V14.01,2014-08-22 05:12:00,
2014-08-22 00:17:00,71.6,70.7,29.88,South,181,2.0,4.0,97,0.00,,BKN100,0.00,VWS V14.01,2014-08-22 05:17:00,
2014-08-22 00:20:00,71.5,70.6,29.88,South,171,2.0,5.0,97,0.00,,,0.00,VWS V14.01,2014-08-22 05:20:00,
2014-08-22 00:22:00,71.5,70.6,29.88,South,189,1.0,5.0,97,0.00,,BKN100,0.00,VWS V14.01,2014-08-22 05:22:00,
2014-08-22 00:27:00,71.5,70.6,29.87,South,181,2.0,5.0,97,0.00,,BKN100,0.00,VWS V14.01,2014-08-22 05:27:00,
2014-08-22 00:30:00,71.4,70.5,29.87,SSW,196,2.0,5.0,97,0.00,,,0.00,VWS V14.01,2014-08-22 05:30:00,
2014-08-22 00:32:00,71.4,70.5,29.87,SSW,196,2.0,2.0,97,0.00,,BKN100,0.00,VWS V14.01,2014-08-22 05:32:00,
2014-08-22 00:37:00,71.3,70.4,29.87,South,183,2.0,4.0,97,0.00,,BKN043,0.00,VWS V14.01,2014-08-22 05:37:00,
2014-08-22 00:40:00,71.3,70.4,29.87,South,184,2.0,4.0,97,0.00,,,0.00,VWS V14.01,2014-08-22 05:40:00,
2014-08-22 00:42:00,71.3,70.4,29.87,South,184,2.0,3.0,97,0.00,,BKN043,0.00,VWS V14.01,2014-08-22 05:42:00,
2014-08-22 00:47:00,71.2,70.3,29.87,South,184,1.0,3.0,97,0.00,,BKN043,0.00,VWS V14.01,2014-08-22 05:47:00,
2014-08-22 00:50:00,71.2,70.3,29.87,South,184,3.0,3.0,97,0.00,,,0.00,VWS V14.01,2014-08-22 05:50:00,
2014-08-22 00:52:00,71.2,70.3,29.86,South,184,1.0,3.0,97,0.00,,BKN043,0.00,VWS V14.01,2014-08-22 05:52:00,
2014-08-22 00:57:00,71.1,70.2,29.86,South,184,2.0,3.0,97,0.00,,BKN043,0.00,VWS V14.01,2014-08-22 05:57:00,
2014-08-22 01:00:00,71.0,70.1,29.86,South,184,3.0,4.0,97,0.00,,,0.00,VWS V14.01,2014-08-22 06:00:00,
2014-08-22 01:02:00,71.0,70.1,29.86,South,184,1.0,3.0,97,0.00,,BKN043,0.00,VWS V14.01,2014-08-22 06:02:00,
2014-08-22 01:07:00,71.0,70.1,29.86,South,184,2.0,4.0,97,0.00,,BKN043,0.00,VWS V14.01,2014-08-22 06:07:00,
2014-08-22 01:10:00,70.9,70.0,29.86,South,184,1.0,4.0,97,0.00,,,0.00,VWS V14.01,2014-08-22 06:10:00,
2014-08-22 01:12:00,70.9,70.0,29.86,South,184,2.0,3.0,97,0.00,,BKN043,0.00,VWS V14.01,2014-08-22 06:12:00,
2014-08-22 01:17:00,70.9,70.0,29.85,South,184,1.0,5.0,97,0.00,,BKN043,0.00,VWS V14.01,2014-08-22 06:17:00,
2014-08-22 01:20:00,70.9,70.0,29.85,SSW,211,2.0,5.0,97,0.00,,,0.00,VWS V14.01,2014-08-22 06:20:00,
2014-08-22 01:22:00,70.9,70.0,29.85,SSW,192,2.0,5.0,97,0.00,,BKN043,0.00,VWS V14.01,2014-08-22 06:22:00,
2014-08-22 01:27:00,70.9,70.0,29.85,SSW,194,0.0,5.0,97,0.00,,BKN043,0.00,VWS V14.01,2014-08-22 06:27:00,
2014-08-22 01:30:00,70.9,70.0,29.85,SSW,194,2.0,5.0,97,0.00,,,0.00,VWS V14.01,2014-08-22 06:30:00,
2014-08-22 01:32:00,70.9,70.0,29.85,SSW,194,2.0,2.0,97,0.00,,BKN043,0.00,VWS V14.01,2014-08-22 06:32:00,
2014-08-22 01:37:00,70.9,70.0,29.85,SSW,192,1.0,3.0,97,0.00,,,0.00,VWS V14.01,2014-08-22 06:37:00,
2014-08-22 01:40:00,70.9,70.0,29.85,South,190,2.0,4.0,97,0.00,,,0.00,VWS V14.01,2014-08-22 06:40:00,
2014-08-22 01:42:00,70.9,70.0,29.85,South,188,2.0,4.0,97,0.00,,,0.00,VWS V14.01,2014-08-22 06:42:00,
2014-08-22 01:47:00,70.9,70.3,29.85,South,185,3.0,6.0,98,0.00,,,0.00,VWS V14.01,2014-08-22 06:47:00,
2014-08-22 01:50:00,70.9,70.3,29.85,South,185,3.0,6.0,98,0.00,,,0.00,VWS V14.01,2014-08-22 06:50:00,
2014-08-22 01:52:00,71.0,70.4,29.85,South,175,1.0,5.0,98,0.00,,,0.00,VWS V14.01,2014-08-22 06:52:00,
2014-08-22 01:57:00,71.0,70.4,29.84,SSE,150,2.0,5.0,98,0.00,,,0.00,VWS V14.01,2014-08-22 06:57:00,
2014-08-22 02:00:00,71.0,70.4,29.84,SSE,150,2.0,5.0,98,0.00,,,0.00,VWS V14.01,2014-08-22 07:00:00,
2014-08-22 02:02:00,71.0,70.4,29.84,SSE,150,2.0,2.0,98,0.00,,,0.00,VWS V14.01,2014-08-22 07:02:00,
2014-08-22 02:07:00,71.1,70.5,29.84,SSE,148,2.0,4.0,98,0.00,,,0.00,VWS V14.01,2014-08-22 07:07:00,
2014-08-22 02:10:00,71.2,70.6,29.84,South,179,2.0,6.0,98,0.00,,,0.00,VWS V14.01,2014-08-22 07:10:00,
2014-08-22 02:12:00,71.2,70.6,29.84,South,171,2.0,6.0,98,0.00,,,0.00,VWS V14.01,2014-08-22 07:12:00,
2014-08-22 02:17:00,71.3,70.7,29.84,SSE,147,3.0,6.0,98,0.00,,,0.00,VWS V14.01,2014-08-22 07:17:00,
2014-08-22 02:20:00,71.3,70.7,29.84,SSE,148,0.0,6.0,98,0.00,,,0.00,VWS V14.01,2014-08-22 07:20:00,
2014-08-22 02:22:00,71.3,70.7,29.84,SSE,148,0.0,0.0,98,0.00,,,0.00,VWS V14.01,2014-08-22 07:22:00,
2014-08-22 02:26:00,71.3,70.7,29.83,SSE,148,0.0,0.0,98,0.00,,,0.00,VWS V14.01,2014-08-22 07:26:00,
2014-08-22 02:30:00,71.3,70.7,29.83,SSE,148,0.0,0.0,98,0.00,,,0.00,VWS V14.01,2014-08-22 07:30:00,
2014-08-22 02:31:00,71.3,70.7,29.83,SSE,148,0.0,0.0,98,0.00,,,0.00,VWS V14.01,2014-08-22 07:31:00,
2014-08-22 02:36:00,71.3,70.7,29.83,SSE,148,1.0,2.0,98,0.00,,,0.00,VWS V14.01,2014-08-22 07:36:00,
2014-08-22 02:40:00,71.3,70.7,29.83,SSE,160,2.0,4.0,98,0.00,,,0.00,VWS V14.01,2014-08-22 07:40:00,
2014-08-22 02:41:00,71.3,70.7,29.83,SSE,160,1.0,2.0,98,0.00,,,0.00,VWS V14.01,2014-08-22 07:41:00,
2014-08-22 02:46:00,71.2,70.6,29.83,SSE,160,2.0,2.0,98,0.00,,,0.00,VWS V14.01,2014-08-22 07:46:00,
2014-08-22 02:50:00,71.1,70.5,29.82,South,171,1.0,5.0,98,0.00,,,0.00,VWS V14.01,2014-08-22 07:50:00,
2014-08-22 02:51:00,71.0,70.4,29.82,South,170,1.0,2.0,98,0.00,,,0.00,VWS V14.01,2014-08-22 07:51:00,
2014-08-22 02:56:00,70.9,70.3,29.82,South,186,2.0,4.0,98,0.00,,,0.00,VWS V14.01,2014-08-22 07:56:00,
2014-08-22 03:00:00,70.8,70.2,29.82,South,186,1.0,5.0,98,0.00,,,0.00,VWS V14.01,2014-08-22 08:00:00,
2014-08-22 03:01:00,70.8,70.2,29.82,South,183,1.0,3.0,98,0.00,,,0.00,VWS V14.01,2014-08-22 08:01:00,
2014-08-22 03:06:00,70.8,70.2,29.82,SSW,192,2.0,5.0,98,0.00,,,0.00,VWS V14.01,2014-08-22 08:06:00,
2014-08-22 03:10:00,70.8,70.2,29.82,South,181,4.0,6.0,98,0.00,,,0.00,VWS V14.01,2014-08-22 08:10:00,
2014-08-22 03:11:00,70.8,70.2,29.82,South,184,2.0,4.0,98,0.00,,,0.00,VWS V14.01,2014-08-22 08:11:00,
2014-08-22 03:16:00,70.8,70.2,29.83,South,173,2.0,6.0,98,0.00,,,0.00,VWS V14.01,2014-08-22 08:16:00,
2014-08-22 03:20:00,70.8,70.2,29.83,South,186,3.0,6.0,98,0.00,,,0.00,VWS V14.01,2014-08-22 08:20:00,
2014-08-22 03:21:00,70.8,70.2,29.83,South,186,2.0,5.0,98,0.00,,,0.00,VWS V14.01,2014-08-22 08:21:00,
2014-08-22 03:26:00,70.8,70.2,29.83,South,188,2.0,6.0,98,0.00,,,0.00,VWS V14.01,2014-08-22 08:26:00,
2014-08-22 03:30:00,70.8,70.2,29.83,South,182,2.0,6.0,98,0.00,,,0.00,VWS V14.01,2014-08-22 08:30:00,
2014-08-22 03:31:00,70.8,70.2,29.83,South,181,4.0,4.0,98,0.00,,,0.00,VWS V14.01,2014-08-22 08:31:00,
2014-08-22 03:36:00,70.8,70.2,29.83,South,181,3.0,5.0,98,0.00,,,0.00,VWS V14.01,2014-08-22 08:36:00,
2014-08-22 03:40:00,70.8,70.2,29.84,SSW,199,3.0,5.0,98,0.00,,,0.00,VWS V14.01,2014-08-22 08:40:00,
2014-08-22 03:41:00,70.8,70.2,29.84,South,178,3.0,5.0,98,0.00,,,0.00,VWS V14.01,2014-08-22 08:41:00,
2014-08-22 03:46:00,70.9,70.3,29.84,South,180,3.0,5.0,98,0.00,,,0.00,VWS V14.01,2014-08-22 08:46:00,
2014-08-22 03:50:00,70.9,70.3,29.84,SSW,198,2.0,5.0,98,0.00,,,0.00,VWS V14.01,2014-08-22 08:50:00,
2014-08-22 03:51:00,70.9,70.3,29.84,SSW,194,2.0,3.0,98,0.00,,,0.00,VWS V14.01,2014-08-22 08:51:00,
2014-08-22 03:56:00,70.9,70.3,29.85,South,169,1.0,5.0,98,0.00,,,0.00,VWS V14.01,2014-08-22 08:56:00,
2014-08-22 04:00:00,71.0,70.4,29.85,SSW,194,3.0,5.0,98,0.00,,,0.00,VWS V14.01,2014-08-22 09:00:00,
2014-08-22 04:01:00,71.0,70.4,29.85,SSE,167,3.0,4.0,98,0.00,,,0.00,VWS V14.01,2014-08-22 09:01:00,
2014-08-22 04:06:00,71.1,70.5,29.85,South,187,3.0,6.0,98,0.00,,,0.00,VWS V14.01,2014-08-22 09:06:00,
2014-08-22 04:10:00,71.2,70.6,29.86,South,188,2.0,6.0,98,0.00,,,0.00,VWS V14.01,2014-08-22 09:10:00,
2014-08-22 04:11:00,71.2,70.6,29.86,South,170,4.0,4.0,98,0.00,,,0.00,VWS V14.01,2014-08-22 09:11:00,
2014-08-22 04:16:00,71.2,70.6,29.86,SSE,167,3.0,5.0,98,0.00,,,0.00,VWS V14.01,2014-08-22 09:16:00,
2014-08-22 04:20:00,71.2,70.6,29.86,South,179,2.0,5.0,98,0.00,,,0.00,VWS V14.01,2014-08-22 09:20:00,
2014-08-22 04:21:00,71.2,70.6,29.86,South,179,1.0,2.0,98,0.00,,,0.00,VWS V14.01,2014-08-22 09:21:00,
2014-08-22 04:26:00,71.2,70.6,29.86,SSE,165,1.0,4.0,98,0.00,,,0.00,VWS V14.01,2014-08-22 09:26:00,
2014-08-22 04:30:00,71.2,70.6,29.86,South,180,2.0,4.0,98,0.00,,,0.00,VWS V14.01,2014-08-22 09:30:00,
2014-08-22 04:31:00,71.2,70.6,29.86,SSW,194,4.0,5.0,98,0.00,,,0.00,VWS V14.01,2014-08-22 09:31:00,
2014-08-22 04:36:00,71.2,70.6,29.86,SSE,161,4.0,6.0,98,0.00,,,0.00,VWS V14.01,2014-08-22 09:36:00,
2014-08-22 04:40:00,71.2,70.6,29.86,South,173,5.0,7.0,98,0.00,,,0.00,VWS V14.01,2014-08-22 09:40:00,
2014-08-22 04:41:00,71.2,70.6,29.86,SSW,197,1.0,5.0,98,0.00,,,0.00,VWS V14.01,2014-08-22 09:41:00,
2014-08-22 04:46:00,71.2,70.6,29.86,SSE,150,3.0,5.0,98,0.00,,,0.00,VWS V14.01,2014-08-22 09:46:00,
2014-08-22 04:50:00,71.2,70.6,29.86,South,171,4.0,5.0,98,0.00,,,0.00,VWS V14.01,2014-08-22 09:50:00,
2014-08-22 04:51:00,71.2,70.6,29.86,South,178,2.0,7.0,98,0.00,,,0.00,VWS V14.01,2014-08-22 09:51:00,
2014-08-22 04:56:00,71.2,70.6,29.86,South,180,3.0,7.0,98,0.00,,,0.00,VWS V14.01,2014-08-22 09:56:00,
2014-08-22 05:00:00,71.2,70.6,29.86,SSW,194,2.0,7.0,98,0.00,,,0.00,VWS V14.01,2014-08-22 10:00:00,
2014-08-22 05:01:00,71.2,70.6,29.86,South,188,3.0,3.0,98,0.00,,,0.00,VWS V14.01,2014-08-22 10:01:00,
2014-08-22 05:06:00,71.2,70.6,29.85,South,184,2.0,4.0,98,0.00,,,0.00,VWS V14.01,2014-08-22 10:06:00,
2014-08-22 05:10:00,71.2,70.6,29.86,South,171,2.0,4.0,98,0.00,,,0.00,VWS V14.01,2014-08-22 10:10:00,
2014-08-22 05:11:00,71.2,70.6,29.85,South,170,2.0,4.0,98,0.00,,,0.00,VWS V14.01,2014-08-22 10:11:00,
2014-08-22 05:16:00,71.2,70.6,29.85,South,178,1.0,4.0,98,0.00,,,0.00,VWS V14.01,2014-08-22 10:16:00,
2014-08-22 05:20:00,71.2,70.9,29.86,SSW,193,3.0,5.0,99,0.00,,,0.00,VWS V14.01,2014-08-22 10:20:00,
2014-08-22 05:21:00,71.2,70.9,29.86,South,180,3.0,4.0,99,0.00,,,0.00,VWS V14.01,2014-08-22 10:21:00,
2014-08-22 05:26:00,71.2,70.9,29.86,SSE,168,2.0,5.0,99,0.00,,,0.00,VWS V14.01,2014-08-22 10:26:00,
2014-08-22 05:30:00,71.2,70.9,29.86,South,180,2.0,5.0,99,0.00,,,0.00,VWS V14.01,2014-08-22 10:30:00,
2014-08-22 05:31:00,71.2,70.9,29.86,South,178,3.0,3.0,99,0.00,,,0.00,VWS V14.01,2014-08-22 10:31:00,
2014-08-22 05:36:00,71.2,70.9,29.86,South,171,0.0,5.0,99,0.00,,,0.00,VWS V14.01,2014-08-22 10:36:00,
2014-08-22 05:40:00,71.2,70.9,29.85,South,171,1.0,5.0,99,0.00,,,0.00,VWS V14.01,2014-08-22 10:40:00,
2014-08-22 05:41:00,71.2,70.9,29.85,South,173,2.0,3.0,99,0.00,,,0.00,VWS V14.01,2014-08-22 10:41:00,
2014-08-22 05:46:00,71.2,70.9,29.86,SSW,197,4.0,4.0,99,0.00,,,0.00,VWS V14.01,2014-08-22 10:46:00,
2014-08-22 05:50:00,71.2,70.9,29.86,South,187,2.0,4.0,99,0.00,,,0.00,VWS V14.01,2014-08-22 10:50:00,
2014-08-22 05:51:00,71.2,70.9,29.86,South,187,1.0,2.0,99,0.00,,,0.00,VWS V14.01,2014-08-22 10:51:00,
2014-08-22 05:56:00,71.2,70.9,29.86,South,190,2.0,5.0,99,0.00,,,0.00,VWS V14.01,2014-08-22 10:56:00,
2014-08-22 06:00:00,71.2,70.9,29.86,SE,130,1.0,5.0,99,0.00,,,0.00,VWS V14.01,2014-08-22 11:00:00,
2014-08-22 06:01:00,71.2,70.9,29.86,SSE,163,2.0,4.0,99,0.00,,,0.00,VWS V14.01,2014-08-22 11:01:00,
2014-08-22 06:06:00,71.2,70.9,29.86,SSW,196,3.0,5.0,99,0.00,,,0.00,VWS V14.01,2014-08-22 11:06:00,
2014-08-22 06:10:00,71.2,70.9,29.86,South,182,2.0,7.0,99,0.00,,,0.00,VWS V14.01,2014-08-22 11:10:00,
2014-08-22 06:11:00,71.2,70.9,29.86,South,190,2.0,4.0,99,0.00,,,0.00,VWS V14.01,2014-08-22 11:11:00,
2014-08-22 06:16:00,71.2,70.9,29.86,South,170,1.0,4.0,99,0.00,,,0.00,VWS V14.01,2014-08-22 11:16:00,
2014-08-22 06:20:00,71.1,70.8,29.85,South,175,2.0,5.0,99,0.00,,,0.00,VWS V14.01,2014-08-22 11:20:00,
2014-08-22 06:21:00,71.1,70.8,29.85,SSE,148,2.0,6.0,99,0.00,,,0.00,VWS V14.01,2014-08-22 11:21:00,
2014-08-22 06:26:00,71.1,70.8,29.85,SE,144,1.0,6.0,99,0.00,,,0.00,VWS V14.01,2014-08-22 11:26:00,
2014-08-22 06:30:00,71.1,70.8,29.85,SSE,165,1.0,6.0,99,0.00,,,0.00,VWS V14.01,2014-08-22 11:30:00,
2014-08-22 06:31:00,71.1,70.8,29.85,SSE,165,2.0,4.0,99,0.00,,,0.00,VWS V14.01,2014-08-22 11:31:00,
2014-08-22 06:36:00,71.1,70.8,29.85,South,176,2.0,4.0,99,0.00,,,0.00,VWS V14.01,2014-08-22 11:36:00,
2014-08-22 06:40:00,71.1,70.8,29.85,South,180,2.0,4.0,99,0.00,,,0.00,VWS V14.01,2014-08-22 11:40:00,
2014-08-22 06:41:00,71.1,70.8,29.85,South,180,0.0,2.0,99,0.00,,,0.00,VWS V14.01,2014-08-22 11:41:00,
2014-08-22 06:46:00,71.2,70.9,29.85,SE,142,2.0,4.0,99,0.00,,,0.00,VWS V14.01,2014-08-22 11:46:00,
2014-08-22 06:50:00,71.2,70.9,29.86,South,173,1.0,5.0,99,0.00,,,0.00,VWS V14.01,2014-08-22 11:50:00,
2014-08-22 06:51:00,71.2,70.9,29.86,South,173,2.0,2.0,99,0.00,,,0.00,VWS V14.01,2014-08-22 11:51:00,
2014-08-22 06:56:00,71.2,70.9,29.86,South,177,2.0,3.0,99,0.00,,,0.00,VWS V14.01,2014-08-22 11:56:00,
2014-08-22 07:00:00,71.2,70.9,29.87,South,178,2.0,3.0,99,0.00,,,0.00,VWS V14.01,2014-08-22 12:00:00,
2014-08-22 07:01:00,71.2,70.9,29.87,South,178,2.0,3.0,99,0.00,,,0.00,VWS V14.01,2014-08-22 12:01:00,
2014-08-22 07:06:00,71.2,70.9,29.87,South,190,4.0,4.0,99,0.00,,,0.00,VWS V14.01,2014-08-22 12:06:00,
2014-08-22 07:10:00,71.3,71.0,29.88,SSE,156,1.0,4.0,99,0.00,,,0.00,VWS V14.01,2014-08-22 12:10:00,
2014-08-22 07:11:00,71.3,71.0,29.88,SSE,157,2.0,3.0,99,0.00,,,0.00,VWS V14.01,2014-08-22 12:11:00,
2014-08-22 07:16:00,71.3,71.0,29.88,South,180,2.0,5.0,99,0.00,,,0.00,VWS V14.01,2014-08-22 12:16:00,
2014-08-22 07:20:00,71.3,71.0,29.88,SSE,161,1.0,5.0,99,0.00,,,0.00,VWS V14.01,2014-08-22 12:20:00,
2014-08-22 07:21:00,71.3,71.0,29.88,SSE,161,1.0,4.0,99,0.00,,,0.00,VWS V14.01,2014-08-22 12:21:00,
2014-08-22 07:26:00,71.4,71.1,29.88,SSE,162,2.0,4.0,99,0.00,,,0.00,VWS V14.01,2014-08-22 12:26:00,
2014-08-22 07:30:00,71.5,71.2,29.88,South,170,4.0,6.0,99,0.00,,,0.00,VWS V14.01,2014-08-22 12:30:00,
2014-08-22 07:31:00,71.5,71.2,29.88,South,185,3.0,4.0,99,0.00,,,0.00,VWS V14.01,2014-08-22 12:31:00,
2014-08-22 07:36:00,71.6,71.3,29.88,South,174,3.0,6.0,99,0.00,,,0.00,VWS V14.01,2014-08-22 12:36:00,
2014-08-22 07:40:00,71.6,71.3,29.88,South,178,3.0,6.0,99,0.00,,,0.00,VWS V14.01,2014-08-22 12:40:00,
2014-08-22 07:41:00,71.6,71.3,29.88,SSE,160,1.0,6.0,99,0.00,,,0.00,VWS V14.01,2014-08-22 12:41:00,
2014-08-22 07:46:00,71.7,71.4,29.88,South,173,2.0,6.0,99,0.00,,,0.00,VWS V14.01,2014-08-22 12:46:00,
2014-08-22 07:50:00,71.8,71.5,29.88,South,174,0.0,6.0,99,0.00,,,0.00,VWS V14.01,2014-08-22 12:50:00,
2014-08-22 07:51:00,71.8,71.5,29.88,South,174,1.0,2.0,99,0.00,,,0.00,VWS V14.01,2014-08-22 12:51:00,
2014-08-22 07:56:00,72.0,71.7,29.88,South,186,1.0,4.0,99,0.00,,,0.00,VWS V14.01,2014-08-22 12:56:00,
2014-08-22 08:00:00,72.1,71.8,29.88,SSW,200,1.0,4.0,99,0.00,,,0.00,VWS V14.01,2014-08-22 13:00:00,
2014-08-22 08:01:00,72.1,71.8,29.88,SSE,159,1.0,3.0,99,0.00,,,0.00,VWS V14.01,2014-08-22 13:01:00,
2014-08-22 08:06:00,72.1,71.8,29.88,South,171,4.0,4.0,99,0.00,,,0.00,VWS V14.01,2014-08-22 13:06:00,
2014-08-22 08:10:00,72.2,71.9,29.88,SSE,163,4.0,6.0,99,0.00,,,0.00,VWS V14.01,2014-08-22 13:10:00,
2014-08-22 08:11:00,72.2,71.9,29.88,SE,138,1.0,4.0,99,0.00,,,0.00,VWS V14.01,2014-08-22 13:11:00,
2014-08-22 08:16:00,72.3,72.0,29.88,SSE,157,1.0,4.0,99,0.00,,,0.00,VWS V14.01,2014-08-22 13:16:00,
2014-08-22 08:20:00,72.4,72.1,29.88,SSE,157,2.0,4.0,99,0.00,,,0.00,VWS V14.01,2014-08-22 13:20:00,
2014-08-22 08:21:00,72.4,72.1,29.88,SE,141,2.0,5.0,99,0.00,,,0.00,VWS V14.01,2014-08-22 13:21:00,
2014-08-22 08:26:00,72.5,72.2,29.88,SSE,153,3.0,5.0,99,0.00,,,0.00,VWS V14.01,2014-08-22 13:26:00,
2014-08-22 08:30:00,72.6,72.3,29.88,SE,146,1.0,6.0,99,0.00,,,0.00,VWS V14.01,2014-08-22 13:30:00,
2014-08-22 08:31:00,72.7,72.4,29.88,SSE,148,1.0,2.0,99,0.00,,,0.00,VWS V14.01,2014-08-22 13:31:00,
2014-08-22 08:36:00,72.8,72.5,29.88,SSE,161,1.0,5.0,99,0.00,,,0.00,VWS V14.01,2014-08-22 13:36:00,
2014-08-22 08:40:00,72.8,72.5,29.89,SSE,167,4.0,5.0,99,0.00,,,0.00,VWS V14.01,2014-08-22 13:40:00,
2014-08-22 08:41:00,72.8,72.5,29.88,SSE,167,3.0,4.0,99,0.00,,,0.00,VWS V14.01,2014-08-22 13:41:00,
2014-08-22 08:46:00,72.9,72.6,29.89,South,172,3.0,5.0,99,0.00,,,0.00,VWS V14.01,2014-08-22 13:46:00,
2014-08-22 08:50:00,72.9,72.6,29.89,South,184,0.0,6.0,99,0.00,,,0.00,VWS V14.01,2014-08-22 13:50:00,
2014-08-22 08:51:00,72.9,72.6,29.89,South,184,0.0,0.0,99,0.00,,,0.00,VWS V14.01,2014-08-22 13:51:00,
2014-08-22 08:56:00,73.0,72.7,29.89,South,176,3.0,6.0,99,0.00,,,0.00,VWS V14.01,2014-08-22 13:56:00,
2014-08-22 09:00:00,73.0,72.7,29.89,South,182,2.0,6.0,99,0.00,,,0.00,VWS V14.01,2014-08-22 14:00:00,
2014-08-22 09:01:00,73.0,72.7,29.89,South,182,2.0,4.0,99,0.00,,,0.00,VWS V14.01,2014-08-22 14:01:00,
2014-08-22 09:06:00,73.1,72.8,29.89,South,187,2.0,4.0,99,0.00,,,0.00,VWS V14.01,2014-08-22 14:06:00,
2014-08-22 09:10:00,73.2,72.9,29.90,South,178,3.0,5.0,99,0.00,,,0.00,VWS V14.01,2014-08-22 14:10:00,
2014-08-22 09:11:00,73.3,73.0,29.90,South,171,4.0,4.0,99,0.00,,,0.00,VWS V14.01,2014-08-22 14:11:00,
2014-08-22 09:16:00,73.4,73.1,29.90,SSE,147,3.0,6.0,99,0.00,,,0.00,VWS V14.01,2014-08-22 14:16:00,
2014-08-22 09:20:00,73.5,73.2,29.90,SSE,161,2.0,6.0,99,0.00,,,0.00,VWS V14.01,2014-08-22 14:20:00,
2014-08-22 09:21:00,73.5,73.2,29.90,SSE,161,1.0,2.0,99,0.00,,,0.00,VWS V14.01,2014-08-22 14:21:00,
2014-08-22 09:26:00,73.5,73.2,29.90,SE,140,3.0,4.0,99,0.00,,,0.00,VWS V14.01,2014-08-22 14:26:00,
2014-08-22 09:30:00,73.5,73.2,29.90,South,184,0.0,4.0,99,0.00,,,0.00,VWS V14.01,2014-08-22 14:30:00,
2014-08-22 09:31:00,73.6,73.3,29.90,South,184,2.0,2.0,99,0.00,,,0.00,VWS V14.01,2014-08-22 14:31:00,
2014-08-22 09:36:00,73.8,73.5,29.90,South,188,5.0,5.0,99,0.00,,,0.00,VWS V14.01,2014-08-22 14:36:00,
2014-08-22 09:40:00,74.0,73.7,29.90,South,180,2.0,5.0,99,0.00,,,0.00,VWS V14.01,2014-08-22 14:40:00,
2014-08-22 09:41:00,74.0,73.7,29.89,South,178,3.0,6.0,99,0.00,,,0.00,VWS V14.01,2014-08-22 14:41:00,
2014-08-22 09:46:00,74.1,73.8,29.89,SSW,194,4.0,6.0,99,0.00,,,0.00,VWS V14.01,2014-08-22 14:46:00,
2014-08-22 09:50:00,74.2,73.9,29.89,ESE,119,2.0,7.0,99,0.00,,,0.00,VWS V14.01,2014-08-22 14:50:00,
2014-08-22 09:51:00,74.3,74.0,29.89,SE,127,2.0,3.0,99,0.00,,,0.00,VWS V14.01,2014-08-22 14:51:00,
2014-08-22 09:56:00,74.8,74.2,29.90,SE,137,0.0,3.0,98,0.00,,,0.00,VWS V14.01,2014-08-22 14:56:00,
2014-08-22 10:00:00,75.2,74.6,29.89,South,180,2.0,3.0,98,0.00,,,0.00,VWS V14.01,2014-08-22 15:00:00,
2014-08-22 10:01:00,75.4,74.8,29.89,SSW,196,2.0,3.0,98,0.00,,,0.00,VWS V14.01,2014-08-22 15:01:00,
2014-08-22 10:06:00,76.1,74.9,29.89,South,175,3.0,5.0,96,0.00,,,0.00,VWS V14.01,2014-08-22 15:06:00,
2014-08-22 10:10:00,76.5,75.0,29.89,South,178,0.0,5.0,95,0.00,,,0.00,VWS V14.01,2014-08-22 15:10:00,
2014-08-22 10:11:00,76.6,75.1,29.90,South,178,0.0,0.0,95,0.00,,,0.00,VWS V14.01,2014-08-22 15:11:00,
2014-08-22 10:16:00,77.0,75.1,29.90,South,178,0.0,2.0,94,0.00,,,0.00,VWS V14.01,2014-08-22 15:16:00,
2014-08-22 10:22:00,77.3,75.1,29.90,South,178,0.0,0.0,93,0.00,,,0.00,VWS V14.01,2014-08-22 15:22:00,
2014-08-22 10:27:00,77.5,75.3,29.90,SSE,153,1.0,2.0,93,0.00,,,0.00,VWS V14.01,2014-08-22 15:27:00,
2014-08-22 10:32:00,77.9,75.4,29.90,SE,146,3.0,3.0,92,0.00,,,0.00,VWS V14.01,2014-08-22 15:32:00,
2014-08-22 10:37:00,78.2,75.4,29.90,SSE,154,1.0,4.0,91,0.00,,,0.00,VWS V14.01,2014-08-22 15:37:00,
2014-08-22 10:42:00,78.6,75.4,29.90,SE,143,0.0,2.0,90,0.00,,,0.00,VWS V14.01,2014-08-22 15:42:00,
2014-08-22 10:47:00,78.8,75.9,29.90,SSE,150,2.0,4.0,91,0.00,,,0.00,VWS V14.01,2014-08-22 15:47:00,
2014-08-22 11:19:00,81.3,77.0,29.90,SSW,213,2.0,7.0,85,0.00,,,0.00,weatherlink.com 1.10,2014-08-22 16:19:00,
2014-08-22 11:35:00,82.7,77.0,29.91,SSE,155,4.0,9.0,82,0.00,,,0.00,weatherlink.com 1.10,2014-08-22 16:35:00,
2014-08-22 11:52:00,83.0,77.0,29.90,SSE,150,1.0,8.0,83,0.00,,,0.00,weatherlink.com 1.10,2014-08-22 16:52:00,
2014-08-22 12:10:00,84.0,77.0,29.90,South,190,4.0,4.0,80,0.00,,,0.00,weatherlink.com 1.10,2014-08-22 17:10:00,
2014-08-22 12:27:00,84.4,78.0,29.89,South,182,4.0,8.0,80,0.00,,,0.00,weatherlink.com 1.10,2014-08-22 17:27:00,
2014-08-22 12:45:00,85.5,78.0,29.89,SW,234,2.0,8.0,77,0.00,,,0.00,weatherlink.com 1.10,2014-08-22 17:45:00,
2014-08-22 13:01:00,85.2,78.0,29.89,SE,145,3.0,6.0,79,0.00,,,0.00,weatherlink.com 1.10,2014-08-22 18:01:00,
2014-08-22 13:16:00,85.1,78.0,29.88,South,181,2.0,7.0,79,0.00,,,0.00,weatherlink.com 1.10,2014-08-22 18:16:00,
2014-08-22 13:31:00,85.9,77.0,29.88,SW,229,1.0,7.0,75,0.00,,,0.00,weatherlink.com 1.10,2014-08-22 18:31:00,
2014-08-22 13:47:00,86.2,78.0,29.88,South,186,0.0,5.0,76,0.00,,,0.00,weatherlink.com 1.10,2014-08-22 18:47:00,
2014-08-22 14:02:00,86.6,77.0,29.87,WSW,242,2.0,6.0,74,0.00,,,0.00,weatherlink.com 1.10,2014-08-22 19:02:00,
2014-08-22 14:17:00,87.7,77.0,29.87,SSW,209,3.0,5.0,71,0.00,,,0.00,weatherlink.com 1.10,2014-08-22 19:17:00,
2014-08-22 14:32:00,88.5,77.0,29.87,SSW,207,2.0,4.0,69,0.00,,,0.00,weatherlink.com 1.10,2014-08-22 19:32:00,
2014-08-22 14:47:00,88.7,76.0,29.86,West,259,1.0,7.0,66,0.00,,,0.00,weatherlink.com 1.10,2014-08-22 19:47:00,
2014-08-22 15:02:00,88.1,76.0,29.87,South,173,2.0,5.0,67,0.00,,,0.00,weatherlink.com 1.10,2014-08-22 20:02:00,
2014-08-22 15:17:00,87.5,77.0,29.86,WSW,258,3.0,5.0,71,0.00,,,0.00,weatherlink.com 1.10,2014-08-22 20:17:00,
2014-08-22 15:32:00,87.2,75.0,29.86,SW,216,0.0,4.0,68,0.00,,,0.00,weatherlink.com 1.10,2014-08-22 20:32:00,
2014-08-22 15:47:00,87.1,77.0,29.86,South,191,0.0,3.0,71,0.00,,,0.00,weatherlink.com 1.10,2014-08-22 20:47:00,
2014-08-22 15:59:00,86.9,72.8,29.86,NW,324,1.0,1.0,63,0.00,,,0.00,VWS V15.00,2014-08-22 20:59:00,
2014-08-22 16:04:00,86.8,73.6,29.86,NW,311,1.0,3.0,65,0.00,,,0.00,VWS V15.00,2014-08-22 21:04:00,
2014-08-22 16:09:00,86.6,74.8,29.87,NW,316,1.0,3.0,68,0.00,,SCT200,0.00,VWS V15.00,2014-08-22 21:09:00,
2014-08-22 16:14:00,86.4,74.6,29.87,NW,316,0.0,2.0,68,0.00,,SCT200,0.00,VWS V15.00,2014-08-22 21:14:00,
2014-08-22 16:19:00,86.2,74.8,29.86,ESE,119,0.0,2.0,69,0.00,,SCT200,0.00,VWS V15.00,2014-08-22 21:19:00,
2014-08-22 16:24:00,86.1,75.2,29.86,WNW,292,4.0,4.0,70,0.00,,SCT200,0.00,VWS V15.00,2014-08-22 21:24:00,
2014-08-22 16:29:00,86.0,73.3,29.86,NNW,327,0.0,6.0,66,0.00,,SCT200,0.00,VWS V15.00,2014-08-22 21:29:00,
2014-08-22 16:34:00,85.9,75.0,29.87,West,271,0.0,4.0,70,0.00,,SCT200,0.00,VWS V15.00,2014-08-22 21:34:00,
2014-08-22 16:39:00,85.9,75.0,29.86,West,271,2.0,4.0,70,0.00,,SCT200,0.00,VWS V15.00,2014-08-22 21:39:00,
2014-08-22 16:44:00,85.8,74.5,29.87,NW,307,2.0,3.0,69,0.00,,SCT200,0.00,VWS V15.00,2014-08-22 21:44:00,
2014-08-22 16:49:00,85.8,75.3,29.87,WNW,292,2.0,3.0,71,0.00,,SCT200,0.00,VWS V15.00,2014-08-22 21:49:00,
2014-08-22 16:54:00,85.8,75.7,29.87,WNW,292,0.0,2.0,72,0.00,,SCT200,0.00,VWS V15.00,2014-08-22 21:54:00,
2014-08-22 16:59:00,85.9,75.4,29.87,WNW,292,0.0,2.0,71,0.00,,SCT200,0.00,VWS V15.00,2014-08-22 21:59:00,
2014-08-22 17:07:00,85.9,75.4,29.86,NW,304,0.0,0.0,71,0.00,,SCT200,0.00,VWS V15.00,2014-08-22 22:07:00,
2014-08-22 17:12:00,85.8,74.9,29.87,NW,305,0.0,1.0,70,0.00,,SCT200,0.00,VWS V15.00,2014-08-22 22:12:00,
2014-08-22 17:17:00,85.8,74.9,29.86,NW,305,1.0,1.0,70,0.00,,SCT200,0.00,VWS V15.00,2014-08-22 22:17:00,
2014-08-22 17:22:00,85.7,75.2,29.87,West,279,0.0,2.0,71,0.00,,SCT200,0.00,VWS V15.00,2014-08-22 22:22:00,
2014-08-22 17:27:00,85.7,74.8,29.86,West,279,0.0,3.0,70,0.00,,SCT200,0.00,VWS V15.00,2014-08-22 22:27:00,
2014-08-22 17:43:00,85.7,76.0,29.87,West,279,0.0,1.0,72,0.00,,,0.00,weatherlink.com 1.10,2014-08-22 22:43:00,
2014-08-22 17:58:00,85.3,76.0,29.86,West,280,0.0,0.0,73,0.00,,,0.00,weatherlink.com 1.10,2014-08-22 22:58:00,
2014-08-22 18:13:00,85.1,76.0,29.87,West,280,0.0,1.0,73,0.00,,,0.00,weatherlink.com 1.10,2014-08-22 23:13:00,
2014-08-22 18:28:00,84.7,76.0,29.87,West,280,0.0,0.0,74,0.00,,,0.00,weatherlink.com 1.10,2014-08-22 23:28:00,
2014-08-22 18:43:00,84.7,77.0,29.87,West,280,0.0,0.0,77,0.00,,,0.00,weatherlink.com 1.10,2014-08-22 23:43:00,
2014-08-22 18:58:00,84.5,77.0,29.87,West,280,0.0,0.0,77,0.00,,,0.00,weatherlink.com 1.10,2014-08-22 23:58:00,
2014-08-22 19:13:00,84.2,76.0,29.87,West,280,0.0,0.0,77,0.00,,,0.00,weatherlink.com 1.10,2014-08-23 00:13:00,
2014-08-22 19:28:00,83.9,76.0,29.87,West,280,0.0,0.0,76,0.00,,,0.00,weatherlink.com 1.10,2014-08-23 00:28:00,
2014-08-22 19:43:00,83.5,75.0,29.87,West,280,0.0,0.0,75,0.00,,,0.00,weatherlink.com 1.10,2014-08-23 00:43:00,
2014-08-22 19:58:00,83.0,76.0,29.88,West,280,0.0,0.0,78,0.00,,,0.00,weatherlink.com 1.10,2014-08-23 00:58:00,
2014-08-22 20:13:00,82.3,77.0,29.89,West,279,1.0,2.0,84,0.00,,,0.00,weatherlink.com 1.10,2014-08-23 01:13:00,
2014-08-22 20:28:00,81.6,77.0,29.89,SW,225,0.0,0.0,86,0.00,,,0.00,weatherlink.com 1.10,2014-08-23 01:28:00,
2014-08-22 20:43:00,80.7,77.0,29.89,SSW,207,0.0,0.0,87,0.00,,,0.00,weatherlink.com 1.10,2014-08-23 01:43:00,
2014-08-22 20:58:00,79.9,77.0,29.90,SSW,207,0.0,0.0,89,0.00,,,0.00,weatherlink.com 1.10,2014-08-23 01:58:00,